sensor_id;sensor_type;location;lat;lon;timestamp;pressure;altitude;pressure_sealevel;temperature;humidity
21102;BME280;10709;49.006;12.100;2024-01-30T00:01:07;49030.09;;;-146.00;91.00
21102;BME280;10709;49.006;12.100;2024-01-30T00:03:34;49034.00;;;-146.00;90.63
21102;BME280;10709;49.006;12.100;2024-01-30T00:06:00;49041.84;;;-146.00;91.44
21102;BME280;10709;49.006;12.100;2024-01-30T00:08:29;49010.50;;;-146.00;91.49
21102;BME280;10709;49.006;12.100;2024-01-30T00:10:57;49079.06;;;-146.00;91.65
21102;BME280;10709;49.006;12.100;2024-01-30T00:13:23;49043.81;;;-146.00;91.91
21102;BME280;10709;49.006;12.100;2024-01-30T00:15:50;49032.06;;;-146.00;92.44
21102;BME280;10709;49.006;12.100;2024-01-30T00:18:17;49035.97;;;-146.00;92.35
21102;BME280;10709;49.006;12.100;2024-01-30T00:20:45;49024.22;;;-146.00;92.71
21102;BME280;10709;49.006;12.100;2024-01-30T00:23:11;49026.19;;;-146.00;92.83
21102;BME280;10709;49.006;12.100;2024-01-30T00:25:38;49051.66;;;-146.00;92.73
21102;BME280;10709;49.006;12.100;2024-01-30T00:28:04;49028.13;;;-146.00;92.91
21102;BME280;10709;49.006;12.100;2024-01-30T00:30:31;49067.31;;;-146.00;92.57
21102;BME280;10709;49.006;12.100;2024-01-30T00:32:58;49057.53;;;-146.00;92.22
21102;BME280;10709;49.006;12.100;2024-01-30T00:35:25;49081.03;;;-146.00;92.59
21102;BME280;10709;49.006;12.100;2024-01-30T00:37:51;49039.88;;;-146.00;92.52
21102;BME280;10709;49.006;12.100;2024-01-30T00:40:18;49067.31;;;-146.00;92.30
21102;BME280;10709;49.006;12.100;2024-01-30T00:42:45;49039.88;;;-146.00;92.55
21102;BME280;10709;49.006;12.100;2024-01-30T00:45:17;49039.88;;;-146.00;92.89
21102;BME280;10709;49.006;12.100;2024-01-30T00:47:44;49055.56;;;-146.00;93.01
21102;BME280;10709;49.006;12.100;2024-01-30T00:50:11;49071.25;;;-146.00;93.10
21102;BME280;10709;49.006;12.100;2024-01-30T00:52:38;49063.41;;;-146.00;93.22
21102;BME280;10709;49.006;12.100;2024-01-30T00:55:06;49051.66;;;-146.00;93.23
21102;BME280;10709;49.006;12.100;2024-01-30T00:57:33;49043.81;;;-146.00;93.37
21102;BME280;10709;49.006;12.100;2024-01-30T01:00:00;49043.81;;;-146.00;93.73
21102;BME280;10709;49.006;12.100;2024-01-30T01:02:26;49063.41;;;-146.00;93.67
21102;BME280;10709;49.006;12.100;2024-01-30T01:04:53;49059.47;;;-146.00;93.64
21102;BME280;10709;49.006;12.100;2024-01-30T01:07:20;49063.41;;;-146.00;93.71
21102;BME280;10709;49.006;12.100;2024-01-30T01:09:47;49067.31;;;-146.00;93.58
21102;BME280;10709;49.006;12.100;2024-01-30T01:12:15;49063.41;;;-146.00;93.82
21102;BME280;10709;49.006;12.100;2024-01-30T01:14:42;49041.84;;;-146.00;93.78
21102;BME280;10709;49.006;12.100;2024-01-30T01:17:09;49028.13;;;-146.00;93.45
21102;BME280;10709;49.006;12.100;2024-01-30T01:19:36;49043.81;;;-146.00;93.12
21102;BME280;10709;49.006;12.100;2024-01-30T01:22:03;49043.81;;;-146.00;93.69
21102;BME280;10709;49.006;12.100;2024-01-30T01:24:33;49051.66;;;-146.00;93.50
21102;BME280;10709;49.006;12.100;2024-01-30T01:27:00;49045.78;;;-146.00;94.01
21102;BME280;10709;49.006;12.100;2024-01-30T01:29:27;49024.22;;;-146.00;94.12
21102;BME280;10709;49.006;12.100;2024-01-30T01:31:58;49047.72;;;-146.00;94.15
21102;BME280;10709;49.006;12.100;2024-01-30T01:34:25;49014.41;;;-146.00;94.09
21102;BME280;10709;49.006;12.100;2024-01-30T01:36:56;49047.72;;;-146.00;93.94
21102;BME280;10709;49.006;12.100;2024-01-30T01:39:26;49061.44;;;-146.00;93.98
21102;BME280;10709;49.006;12.100;2024-01-30T01:41:53;49035.97;;;-146.00;94.01
21102;BME280;10709;49.006;12.100;2024-01-30T01:44:20;49055.56;;;-146.00;94.36
21102;BME280;10709;49.006;12.100;2024-01-30T01:46:47;49051.66;;;-146.00;94.30
21102;BME280;10709;49.006;12.100;2024-01-30T01:49:14;49028.13;;;-146.00;94.74
21102;BME280;10709;49.006;12.100;2024-01-30T01:51:43;49063.41;;;-146.00;94.86
21102;BME280;10709;49.006;12.100;2024-01-30T01:54:11;49051.66;;;-146.00;95.17
21102;BME280;10709;49.006;12.100;2024-01-30T01:56:38;49039.88;;;-146.00;94.70
21102;BME280;10709;49.006;12.100;2024-01-30T01:59:07;49051.66;;;-146.00;94.76
21102;BME280;10709;49.006;12.100;2024-01-30T02:01:37;49035.97;;;-146.00;95.36
21102;BME280;10709;49.006;12.100;2024-01-30T02:04:04;49039.88;;;-146.00;94.99
21102;BME280;10709;49.006;12.100;2024-01-30T02:06:34;49067.31;;;-146.00;95.49
21102;BME280;10709;49.006;12.100;2024-01-30T02:09:02;49047.72;;;-146.00;95.94
21102;BME280;10709;49.006;12.100;2024-01-30T02:11:33;49024.22;;;-146.00;95.49
21102;BME280;10709;49.006;12.100;2024-01-30T02:14:04;49067.31;;;-146.00;95.58
21102;BME280;10709;49.006;12.100;2024-01-30T02:16:31;49032.06;;;-146.00;95.43
21102;BME280;10709;49.006;12.100;2024-01-30T02:18:59;49065.34;;;-146.00;96.11
21102;BME280;10709;49.006;12.100;2024-01-30T02:21:26;49032.06;;;-146.00;95.53
21102;BME280;10709;49.006;12.100;2024-01-30T02:23:54;49075.16;;;-146.00;95.71
21102;BME280;10709;49.006;12.100;2024-01-30T02:26:21;49059.47;;;-146.00;95.43
21102;BME280;10709;49.006;12.100;2024-01-30T02:28:48;49051.66;;;-146.00;95.28
21102;BME280;10709;49.006;12.100;2024-01-30T02:31:18;49043.81;;;-146.00;94.94
21102;BME280;10709;49.006;12.100;2024-01-30T02:33:46;49034.00;;;-146.00;94.93
21102;BME280;10709;49.006;12.100;2024-01-30T02:36:12;49035.97;;;-146.00;94.93
21102;BME280;10709;49.006;12.100;2024-01-30T02:38:39;49037.94;;;-146.00;94.88
21102;BME280;10709;49.006;12.100;2024-01-30T02:41:06;49051.66;;;-146.00;94.82
21102;BME280;10709;49.006;12.100;2024-01-30T02:43:32;49069.28;;;-146.00;94.67
21102;BME280;10709;49.006;12.100;2024-01-30T02:45:59;49047.72;;;-146.00;94.99
21102;BME280;10709;49.006;12.100;2024-01-30T02:48:27;49035.97;;;-146.00;95.13
21102;BME280;10709;49.006;12.100;2024-01-30T02:50:55;49039.88;;;-146.00;94.82
21102;BME280;10709;49.006;12.100;2024-01-30T02:53:21;49041.84;;;-146.00;94.70
21102;BME280;10709;49.006;12.100;2024-01-30T02:55:48;49039.88;;;-146.00;94.84
21102;BME280;10709;49.006;12.100;2024-01-30T02:58:15;49024.22;;;-146.00;94.47
21102;BME280;10709;49.006;12.100;2024-01-30T03:00:41;49059.47;;;-146.00;94.52
21102;BME280;10709;49.006;12.100;2024-01-30T03:03:08;49067.31;;;-146.00;94.34
21102;BME280;10709;49.006;12.100;2024-01-30T03:05:35;49024.22;;;-146.00;94.64
21102;BME280;10709;49.006;12.100;2024-01-30T03:08:02;49063.41;;;-146.00;94.09
21102;BME280;10709;49.006;12.100;2024-01-30T03:10:30;49057.53;;;-146.00;93.71
21102;BME280;10709;49.006;12.100;2024-01-30T03:12:56;49051.66;;;-146.00;93.90
21102;BME280;10709;49.006;12.100;2024-01-30T03:15:23;49055.56;;;-146.00;93.69
21102;BME280;10709;49.006;12.100;2024-01-30T03:17:50;49063.41;;;-146.00;93.35
21102;BME280;10709;49.006;12.100;2024-01-30T03:20:16;49034.00;;;-146.00;93.15
21102;BME280;10709;49.006;12.100;2024-01-30T03:22:43;49039.88;;;-146.00;93.08
21102;BME280;10709;49.006;12.100;2024-01-30T03:25:10;49043.81;;;-146.00;93.08
21102;BME280;10709;49.006;12.100;2024-01-30T03:27:37;49079.06;;;-146.00;93.32
21102;BME280;10709;49.006;12.100;2024-01-30T03:30:04;49067.31;;;-146.00;92.88
21102;BME280;10709;49.006;12.100;2024-01-30T03:32:30;49047.72;;;-146.00;93.34
21102;BME280;10709;49.006;12.100;2024-01-30T03:34:57;49024.22;;;-146.00;93.56
21102;BME280;10709;49.006;12.100;2024-01-30T03:37:24;49086.91;;;-146.00;93.85
21102;BME280;10709;49.006;12.100;2024-01-30T03:39:51;49065.34;;;-146.00;93.57
21102;BME280;10709;49.006;12.100;2024-01-30T03:42:17;49051.66;;;-146.00;93.74
21102;BME280;10709;49.006;12.100;2024-01-30T03:44:44;49037.94;;;-146.00;94.08
21102;BME280;10709;49.006;12.100;2024-01-30T03:47:11;49043.81;;;-146.00;93.75
21102;BME280;10709;49.006;12.100;2024-01-30T03:49:38;49049.69;;;-146.00;93.10
21102;BME280;10709;49.006;12.100;2024-01-30T03:52:05;49035.97;;;-146.00;92.38
21102;BME280;10709;49.006;12.100;2024-01-30T03:54:31;49035.97;;;-146.00;92.56
21102;BME280;10709;49.006;12.100;2024-01-30T03:56:58;49047.72;;;-146.00;92.07
21102;BME280;10709;49.006;12.100;2024-01-30T03:59:25;49063.41;;;-146.00;92.07
21102;BME280;10709;49.006;12.100;2024-01-30T04:01:52;49024.22;;;-146.00;91.72
21102;BME280;10709;49.006;12.100;2024-01-30T04:04:20;49049.69;;;-146.00;91.92
21102;BME280;10709;49.006;12.100;2024-01-30T04:06:46;49018.34;;;-146.00;92.15
21102;BME280;10709;49.006;12.100;2024-01-30T04:09:14;49012.47;;;-146.00;91.57
21102;BME280;10709;49.006;12.100;2024-01-30T04:11:41;49030.09;;;-146.00;91.71
21102;BME280;10709;49.006;12.100;2024-01-30T04:14:08;49024.22;;;-146.00;91.10
21102;BME280;10709;49.006;12.100;2024-01-30T04:16:36;49063.41;;;-146.00;91.01
21102;BME280;10709;49.006;12.100;2024-01-30T04:19:02;49059.47;;;-146.00;91.01
21102;BME280;10709;49.006;12.100;2024-01-30T04:21:29;49004.63;;;-146.00;90.65
21102;BME280;10709;49.006;12.100;2024-01-30T04:23:56;49020.31;;;-146.00;90.47
21102;BME280;10709;49.006;12.100;2024-01-30T04:26:24;49071.25;;;-146.00;90.70
21102;BME280;10709;49.006;12.100;2024-01-30T04:28:50;49022.25;;;-146.00;90.12
21102;BME280;10709;49.006;12.100;2024-01-30T04:31:17;49047.72;;;-146.00;90.28
21102;BME280;10709;49.006;12.100;2024-01-30T04:33:44;49020.31;;;-146.00;90.31
21102;BME280;10709;49.006;12.100;2024-01-30T04:36:10;49039.88;;;-146.00;90.27
21102;BME280;10709;49.006;12.100;2024-01-30T04:38:38;49059.47;;;-146.00;90.50
21102;BME280;10709;49.006;12.100;2024-01-30T04:41:05;49035.97;;;-146.00;89.71
21102;BME280;10709;49.006;12.100;2024-01-30T04:43:32;49035.97;;;-146.00;90.37
21102;BME280;10709;49.006;12.100;2024-01-30T04:45:58;49034.00;;;-146.00;89.70
21102;BME280;10709;49.006;12.100;2024-01-30T04:48:25;49043.81;;;-146.00;89.84
21102;BME280;10709;49.006;12.100;2024-01-30T04:50:51;49032.06;;;-146.00;89.72
21102;BME280;10709;49.006;12.100;2024-01-30T04:53:18;48988.94;;;-146.00;90.06
21102;BME280;10709;49.006;12.100;2024-01-30T04:55:45;49026.19;;;-146.00;90.18
21102;BME280;10709;49.006;12.100;2024-01-30T04:58:12;49034.00;;;-146.00;90.35
21102;BME280;10709;49.006;12.100;2024-01-30T05:00:39;49024.22;;;-146.00;90.14
21102;BME280;10709;49.006;12.100;2024-01-30T05:03:06;49018.34;;;-146.00;90.37
21102;BME280;10709;49.006;12.100;2024-01-30T05:05:33;49039.88;;;-146.00;90.61
21102;BME280;10709;49.006;12.100;2024-01-30T05:07:59;49010.50;;;-146.00;90.29
21102;BME280;10709;49.006;12.100;2024-01-30T05:10:26;49016.38;;;-146.00;89.69
21102;BME280;10709;49.006;12.100;2024-01-30T05:12:55;49032.06;;;-146.00;89.88
21102;BME280;10709;49.006;12.100;2024-01-30T05:15:22;48990.91;;;-146.00;89.72
21102;BME280;10709;49.006;12.100;2024-01-30T05:17:48;49006.59;;;-146.00;89.79
21102;BME280;10709;49.006;12.100;2024-01-30T05:20:16;48981.13;;;-146.00;90.39
21102;BME280;10709;49.006;12.100;2024-01-30T05:22:43;49039.88;;;-146.00;90.80
21102;BME280;10709;49.006;12.100;2024-01-30T05:25:12;49028.13;;;-146.00;91.71
21102;BME280;10709;49.006;12.100;2024-01-30T05:27:39;49043.81;;;-146.00;92.14
21102;BME280;10709;49.006;12.100;2024-01-30T05:30:07;49057.53;;;-146.00;92.12
21102;BME280;10709;49.006;12.100;2024-01-30T05:32:34;49051.66;;;-146.00;92.06
21102;BME280;10709;49.006;12.100;2024-01-30T05:35:01;49055.56;;;-146.00;92.26
21102;BME280;10709;49.006;12.100;2024-01-30T05:37:28;49047.72;;;-146.00;92.08
21102;BME280;10709;49.006;12.100;2024-01-30T05:39:54;49075.16;;;-146.00;93.93
21102;BME280;10709;49.006;12.100;2024-01-30T05:42:21;49014.41;;;-146.00;94.12
21102;BME280;10709;49.006;12.100;2024-01-30T05:44:48;49043.81;;;-146.00;94.29
21102;BME280;10709;49.006;12.100;2024-01-30T05:47:15;49024.22;;;-146.00;95.17
21102;BME280;10709;49.006;12.100;2024-01-30T05:49:42;49024.22;;;-146.00;95.19
21102;BME280;10709;49.006;12.100;2024-01-30T05:52:08;49024.22;;;-146.00;95.00
21102;BME280;10709;49.006;12.100;2024-01-30T05:54:35;49047.72;;;-146.00;95.27
21102;BME280;10709;49.006;12.100;2024-01-30T05:57:01;49014.41;;;-146.00;95.60
21102;BME280;10709;49.006;12.100;2024-01-30T05:59:28;49018.34;;;-146.00;95.98
21102;BME280;10709;49.006;12.100;2024-01-30T06:01:55;49043.81;;;-146.00;96.95
21102;BME280;10709;49.006;12.100;2024-01-30T06:04:22;49032.06;;;-146.00;96.54
21102;BME280;10709;49.006;12.100;2024-01-30T06:06:50;49047.72;;;-146.00;95.92
21102;BME280;10709;49.006;12.100;2024-01-30T06:09:16;49016.38;;;-146.00;96.24
21102;BME280;10709;49.006;12.100;2024-01-30T06:11:43;49053.59;;;-146.00;96.37
21102;BME280;10709;49.006;12.100;2024-01-30T06:14:09;49034.00;;;-146.00;96.16
21102;BME280;10709;49.006;12.100;2024-01-30T06:16:36;49035.97;;;-146.00;96.41
21102;BME280;10709;49.006;12.100;2024-01-30T06:19:02;49035.97;;;-146.00;96.20
21102;BME280;10709;49.006;12.100;2024-01-30T06:21:29;49032.06;;;-146.00;96.35
21102;BME280;10709;49.006;12.100;2024-01-30T06:23:56;49016.38;;;-146.00;95.93
21102;BME280;10709;49.006;12.100;2024-01-30T06:26:23;49043.81;;;-146.00;96.39
21102;BME280;10709;49.006;12.100;2024-01-30T06:28:50;49059.47;;;-146.00;96.09
21102;BME280;10709;49.006;12.100;2024-01-30T06:31:16;49016.38;;;-146.00;95.50
21102;BME280;10709;49.006;12.100;2024-01-30T06:33:43;49055.56;;;-146.00;96.27
21102;BME280;10709;49.006;12.100;2024-01-30T06:36:09;49032.06;;;-146.00;96.34
21102;BME280;10709;49.006;12.100;2024-01-30T06:38:37;49016.38;;;-146.00;96.20
21102;BME280;10709;49.006;12.100;2024-01-30T06:41:04;49051.66;;;-146.00;95.71
21102;BME280;10709;49.006;12.100;2024-01-30T06:43:31;49030.09;;;-146.00;95.13
21102;BME280;10709;49.006;12.100;2024-01-30T06:45:58;49035.97;;;-146.00;95.38
21102;BME280;10709;49.006;12.100;2024-01-30T06:48:25;49051.66;;;-146.00;95.11
21102;BME280;10709;49.006;12.100;2024-01-30T06:50:55;49065.34;;;-146.00;95.23
21102;BME280;10709;49.006;12.100;2024-01-30T06:53:23;49083.00;;;-146.00;94.95
21102;BME280;10709;49.006;12.100;2024-01-30T06:55:49;49026.19;;;-146.00;95.49
21102;BME280;10709;49.006;12.100;2024-01-30T06:58:16;49037.94;;;-146.00;96.13
21102;BME280;10709;49.006;12.100;2024-01-30T07:00:43;49020.31;;;-146.00;96.00
21102;BME280;10709;49.006;12.100;2024-01-30T07:03:09;49047.72;;;-146.00;96.52
21102;BME280;10709;49.006;12.100;2024-01-30T07:05:36;49073.19;;;-146.00;96.81
21102;BME280;10709;49.006;12.100;2024-01-30T07:08:04;49032.06;;;-146.00;96.37
21102;BME280;10709;49.006;12.100;2024-01-30T07:10:31;49032.06;;;-146.00;96.26
21102;BME280;10709;49.006;12.100;2024-01-30T07:12:58;49016.38;;;-146.00;96.02
21102;BME280;10709;49.006;12.100;2024-01-30T07:15:24;49030.09;;;-146.00;95.72
21102;BME280;10709;49.006;12.100;2024-01-30T07:17:51;49035.97;;;-146.00;95.39
21102;BME280;10709;49.006;12.100;2024-01-30T07:20:18;49028.13;;;-146.00;96.00
21102;BME280;10709;49.006;12.100;2024-01-30T07:22:47;49047.72;;;-146.00;96.03
21102;BME280;10709;49.006;12.100;2024-01-30T07:25:14;49043.81;;;-146.00;96.16
21102;BME280;10709;49.006;12.100;2024-01-30T07:27:40;49071.25;;;-146.00;96.11
21102;BME280;10709;49.006;12.100;2024-01-30T07:30:07;49053.59;;;-146.00;96.09
21102;BME280;10709;49.006;12.100;2024-01-30T07:32:34;49028.13;;;-146.00;96.56
21102;BME280;10709;49.006;12.100;2024-01-30T07:35:00;49034.00;;;-146.00;96.61
21102;BME280;10709;49.006;12.100;2024-01-30T07:37:34;49051.66;;;-146.00;97.39
21102;BME280;10709;49.006;12.100;2024-01-30T07:40:02;49010.50;;;-146.00;98.07
21102;BME280;10709;49.006;12.100;2024-01-30T07:42:29;49047.72;;;-146.00;98.89
21102;BME280;10709;49.006;12.100;2024-01-30T07:44:57;49045.78;;;-146.00;98.45
21102;BME280;10709;49.006;12.100;2024-01-30T07:47:24;49016.38;;;-146.00;98.50
21102;BME280;10709;49.006;12.100;2024-01-30T07:49:51;49035.97;;;-146.00;98.39
21102;BME280;10709;49.006;12.100;2024-01-30T07:52:18;49047.72;;;-146.00;98.62
21102;BME280;10709;49.006;12.100;2024-01-30T07:54:44;49026.19;;;-146.00;98.72
21102;BME280;10709;49.006;12.100;2024-01-30T07:57:11;49039.88;;;-146.00;99.14
21102;BME280;10709;49.006;12.100;2024-01-30T07:59:38;49016.38;;;-146.00;99.04
21102;BME280;10709;49.006;12.100;2024-01-30T08:02:04;49035.97;;;-146.00;99.49
21102;BME280;10709;49.006;12.100;2024-01-30T08:04:31;49039.88;;;-146.00;99.78
21102;BME280;10709;49.006;12.100;2024-01-30T08:06:58;49032.06;;;-146.00;99.65
21102;BME280;10709;49.006;12.100;2024-01-30T08:09:27;49028.13;;;-146.00;100.00
21102;BME280;10709;49.006;12.100;2024-01-30T08:11:53;49039.88;;;-146.00;100.00
21102;BME280;10709;49.006;12.100;2024-01-30T08:14:21;49022.25;;;-146.00;100.00
21102;BME280;10709;49.006;12.100;2024-01-30T08:16:47;49012.47;;;-146.00;100.00
21102;BME280;10709;49.006;12.100;2024-01-30T08:19:14;49037.94;;;-146.00;100.00
21102;BME280;10709;49.006;12.100;2024-01-30T08:21:41;49035.97;;;-146.00;100.00
21102;BME280;10709;49.006;12.100;2024-01-30T08:24:08;49034.00;;;-146.00;100.00
21102;BME280;10709;49.006;12.100;2024-01-30T08:26:34;49032.06;;;-146.00;100.00
21102;BME280;10709;49.006;12.100;2024-01-30T08:29:01;49028.13;;;-146.00;100.00
21102;BME280;10709;49.006;12.100;2024-01-30T08:31:29;49022.25;;;-146.00;100.00
21102;BME280;10709;49.006;12.100;2024-01-30T08:33:57;49024.22;;;-146.00;100.00
21102;BME280;10709;49.006;12.100;2024-01-30T08:36:25;49035.97;;;-146.00;100.00
21102;BME280;10709;49.006;12.100;2024-01-30T08:38:52;49024.22;;;-146.00;100.00
21102;BME280;10709;49.006;12.100;2024-01-30T08:41:26;49039.88;;;-146.00;100.00
21102;BME280;10709;49.006;12.100;2024-01-30T08:43:54;49020.31;;;-146.00;100.00
21102;BME280;10709;49.006;12.100;2024-01-30T08:46:20;49035.97;;;-146.00;100.00
21102;BME280;10709;49.006;12.100;2024-01-30T08:48:47;49037.94;;;-146.00;100.00
21102;BME280;10709;49.006;12.100;2024-01-30T08:51:14;49039.88;;;-146.00;100.00
21102;BME280;10709;49.006;12.100;2024-01-30T08:53:42;49020.31;;;-146.00;100.00
21102;BME280;10709;49.006;12.100;2024-01-30T08:56:08;49024.22;;;-146.00;100.00
21102;BME280;10709;49.006;12.100;2024-01-30T08:58:35;49012.47;;;-146.00;100.00
21102;BME280;10709;49.006;12.100;2024-01-30T09:01:01;49018.34;;;-146.00;100.00
21102;BME280;10709;49.006;12.100;2024-01-30T09:03:30;49035.97;;;-146.00;100.00
21102;BME280;10709;49.006;12.100;2024-01-30T09:05:56;49032.06;;;-146.00;100.00
21102;BME280;10709;49.006;12.100;2024-01-30T09:08:23;49028.13;;;-146.00;100.00
21102;BME280;10709;49.006;12.100;2024-01-30T09:10:50;49012.47;;;-146.00;100.00
21102;BME280;10709;49.006;12.100;2024-01-30T09:13:16;49020.31;;;-146.00;100.00
21102;BME280;10709;49.006;12.100;2024-01-30T09:15:43;49028.13;;;-146.00;100.00
21102;BME280;10709;49.006;12.100;2024-01-30T09:18:10;49012.47;;;-146.00;100.00
21102;BME280;10709;49.006;12.100;2024-01-30T09:20:36;48996.78;;;-146.00;100.00
21102;BME280;10709;49.006;12.100;2024-01-30T09:23:03;49028.13;;;-146.00;100.00
21102;BME280;10709;49.006;12.100;2024-01-30T09:25:29;49028.13;;;-146.00;100.00
21102;BME280;10709;49.006;12.100;2024-01-30T09:27:57;49012.47;;;-146.00;100.00
21102;BME280;10709;49.006;12.100;2024-01-30T09:30:24;48994.84;;;-146.00;100.00
21102;BME280;10709;49.006;12.100;2024-01-30T09:32:50;49020.31;;;-146.00;100.00
21102;BME280;10709;49.006;12.100;2024-01-30T09:35:17;49032.06;;;-146.00;100.00
21102;BME280;10709;49.006;12.100;2024-01-30T09:37:44;49028.13;;;-146.00;100.00
21102;BME280;10709;49.006;12.100;2024-01-30T09:40:11;49032.06;;;-146.00;100.00
21102;BME280;10709;49.006;12.100;2024-01-30T09:42:40;49022.25;;;-146.00;100.00
21102;BME280;10709;49.006;12.100;2024-01-30T09:45:07;49039.88;;;-146.00;100.00
21102;BME280;10709;49.006;12.100;2024-01-30T09:47:41;49028.13;;;-146.00;100.00
21102;BME280;10709;49.006;12.100;2024-01-30T09:50:13;49022.25;;;-146.00;100.00
21102;BME280;10709;49.006;12.100;2024-01-30T09:52:40;49016.38;;;-146.00;100.00
21102;BME280;10709;49.006;12.100;2024-01-30T09:55:08;49016.38;;;-146.00;100.00
21102;BME280;10709;49.006;12.100;2024-01-30T09:57:35;49024.22;;;-146.00;100.00
21102;BME280;10709;49.006;12.100;2024-01-30T10:00:03;49000.72;;;-146.00;100.00
21102;BME280;10709;49.006;12.100;2024-01-30T10:02:31;49012.47;;;-146.00;100.00
21102;BME280;10709;49.006;12.100;2024-01-30T10:04:59;48996.78;;;-146.00;100.00
21102;BME280;10709;49.006;12.100;2024-01-30T10:07:26;49024.22;;;-146.00;100.00
21102;BME280;10709;49.006;12.100;2024-01-30T10:09:53;49012.47;;;-146.00;100.00
21102;BME280;10709;49.006;12.100;2024-01-30T10:12:19;49041.84;;;-146.00;100.00
21102;BME280;10709;49.006;12.100;2024-01-30T10:14:46;49020.31;;;-146.00;100.00
21102;BME280;10709;49.006;12.100;2024-01-30T10:17:13;49035.97;;;-146.00;100.00
21102;BME280;10709;49.006;12.100;2024-01-30T10:19:53;49014.41;;;-146.00;100.00
21102;BME280;10709;49.006;12.100;2024-01-30T10:22:20;49032.06;;;-146.00;100.00
21102;BME280;10709;49.006;12.100;2024-01-30T10:24:48;49039.88;;;-146.00;100.00
21102;BME280;10709;49.006;12.100;2024-01-30T10:27:15;49020.31;;;-146.00;100.00
21102;BME280;10709;49.006;12.100;2024-01-30T10:29:41;49041.84;;;-146.00;100.00
21102;BME280;10709;49.006;12.100;2024-01-30T10:32:08;49035.97;;;-146.00;100.00
21102;BME280;10709;49.006;12.100;2024-01-30T10:34:35;49004.63;;;-146.00;100.00
21102;BME280;10709;49.006;12.100;2024-01-30T10:37:09;49034.00;;;-146.00;100.00
21102;BME280;10709;49.006;12.100;2024-01-30T10:39:44;49030.09;;;-146.00;99.12
21102;BME280;10709;49.006;12.100;2024-01-30T10:42:12;49039.88;;;-146.00;98.83
21102;BME280;10709;49.006;12.100;2024-01-30T10:44:54;49020.31;;;-146.00;100.00
21102;BME280;10709;49.006;12.100;2024-01-30T10:47:27;49010.50;;;-146.00;100.00
21102;BME280;10709;49.006;12.100;2024-01-30T10:49:56;49041.84;;;-146.00;98.42
21102;BME280;10709;49.006;12.100;2024-01-30T10:52:25;49043.81;;;-146.00;99.19
21102;BME280;10709;49.006;12.100;2024-01-30T10:54:54;49028.13;;;-146.00;100.00
21102;BME280;10709;49.006;12.100;2024-01-30T10:57:25;49024.22;;;-146.00;100.00
21102;BME280;10709;49.006;12.100;2024-01-30T10:59:56;49037.94;;;-146.00;100.00
21102;BME280;10709;49.006;12.100;2024-01-30T11:02:24;49008.53;;;-146.00;100.00
21102;BME280;10709;49.006;12.100;2024-01-30T11:04:57;49030.09;;;-146.00;99.65
21102;BME280;10709;49.006;12.100;2024-01-30T11:07:29;49012.47;;;-146.00;99.69
21102;BME280;10709;49.006;12.100;2024-01-30T11:10:00;49039.88;;;-146.00;100.00
21102;BME280;10709;49.006;12.100;2024-01-30T11:12:28;49010.50;;;-146.00;100.00
21102;BME280;10709;49.006;12.100;2024-01-30T11:15:21;49020.31;;;-146.00;98.24
21102;BME280;10709;49.006;12.100;2024-01-30T11:17:52;49028.13;;;-146.00;98.02
21102;BME280;10709;49.006;12.100;2024-01-30T11:20:27;49037.94;;;-146.00;97.52
21102;BME280;10709;49.006;12.100;2024-01-30T11:22:55;49043.81;;;-146.00;97.39
21102;BME280;10709;49.006;12.100;2024-01-30T11:25:23;49055.56;;;-146.00;97.61
21102;BME280;10709;49.006;12.100;2024-01-30T11:27:52;49035.97;;;-146.00;97.03
21102;BME280;10709;49.006;12.100;2024-01-30T11:30:26;49043.81;;;-146.00;96.25
21102;BME280;10709;49.006;12.100;2024-01-30T11:33:06;49035.97;;;-146.00;96.63
21102;BME280;10709;49.006;12.100;2024-01-30T11:35:44;49035.97;;;-146.00;95.94
21102;BME280;10709;49.006;12.100;2024-01-30T11:38:14;49055.56;;;-146.00;96.16
21102;BME280;10709;49.006;12.100;2024-01-30T11:40:46;49043.81;;;-146.00;95.89
21102;BME280;10709;49.006;12.100;2024-01-30T11:43:15;49051.66;;;-146.00;95.58
21102;BME280;10709;49.006;12.100;2024-01-30T11:45:42;49035.97;;;-146.00;95.17
21102;BME280;10709;49.006;12.100;2024-01-30T11:48:12;49075.16;;;-146.00;95.20
21102;BME280;10709;49.006;12.100;2024-01-30T11:50:40;49049.69;;;-146.00;95.04
21102;BME280;10709;49.006;12.100;2024-01-30T11:53:07;49045.78;;;-146.00;94.81
21102;BME280;10709;49.006;12.100;2024-01-30T11:55:35;49055.56;;;-146.00;93.70
21102;BME280;10709;49.006;12.100;2024-01-30T11:58:04;49059.47;;;-146.00;93.25
21102;BME280;10709;49.006;12.100;2024-01-30T12:00:31;49083.00;;;-146.00;93.02
21102;BME280;10709;49.006;12.100;2024-01-30T12:02:59;49071.25;;;-146.00;92.41
21102;BME280;10709;49.006;12.100;2024-01-30T12:05:28;49059.47;;;-146.00;92.03
21102;BME280;10709;49.006;12.100;2024-01-30T12:07:55;49075.16;;;-146.00;92.18
21102;BME280;10709;49.006;12.100;2024-01-30T12:10:25;49039.88;;;-146.00;92.21
21102;BME280;10709;49.006;12.100;2024-01-30T12:12:57;49075.16;;;-146.00;91.84
21102;BME280;10709;49.006;12.100;2024-01-30T12:15:25;49075.16;;;-146.00;91.21
21102;BME280;10709;49.006;12.100;2024-01-30T12:17:52;49057.53;;;-146.00;90.92
21102;BME280;10709;49.006;12.100;2024-01-30T12:20:19;49063.41;;;-146.00;90.57
21102;BME280;10709;49.006;12.100;2024-01-30T12:22:49;49035.97;;;-146.00;90.48
21102;BME280;10709;49.006;12.100;2024-01-30T12:25:18;49035.97;;;-146.00;89.89
21102;BME280;10709;49.006;12.100;2024-01-30T12:27:46;49059.47;;;-146.00;89.23
21102;BME280;10709;49.006;12.100;2024-01-30T12:30:19;49043.81;;;-146.00;88.33